createdAt,value
2022-08-31T00:03:03.368Z,7.82
2022-08-31T00:05:29.692Z,8.65
2022-08-31T00:07:56.025Z,8.85
2022-08-31T00:10:32.373Z,9.52
2022-08-31T00:13:01.183Z,8.75
2022-08-31T00:15:29.877Z,8.40
2022-08-31T00:17:57.227Z,9.52
2022-08-31T00:23:13.843Z,8.73
2022-08-31T00:25:43.980Z,8.18
2022-08-31T00:28:13.396Z,8.80
2022-08-31T00:30:41.523Z,8.93
2022-08-31T00:33:09.356Z,10.23
2022-08-31T00:35:37.835Z,9.45
2022-08-31T00:38:06.725Z,9.93
2022-08-31T00:40:44.254Z,12.13
2022-08-31T00:43:12.629Z,9.75
2022-08-31T00:45:40.381Z,9.80
2022-08-31T00:48:08.146Z,10.23
2022-08-31T00:50:36.003Z,9.52
2022-08-31T00:53:03.872Z,11.18
2022-08-31T00:55:34.899Z,11.00
2022-08-31T00:58:07.515Z,10.38
2022-08-31T01:00:36.225Z,9.95
2022-08-31T01:03:07.723Z,9.32
2022-08-31T01:05:36.657Z,10.90
2022-08-31T01:08:06.322Z,9.63
2022-08-31T01:10:37.802Z,9.35
2022-08-31T01:13:08.875Z,9.38
2022-08-31T01:15:38.681Z,10.10
2022-08-31T01:18:08.356Z,9.55
2022-08-31T01:20:48.679Z,9.73
2022-08-31T01:23:22.428Z,11.02
2022-08-31T01:25:53.412Z,9.18
2022-08-31T01:28:21.124Z,9.48
2022-08-31T01:31:00.572Z,9.27
2022-08-31T01:33:28.504Z,9.52
2022-08-31T01:35:56.626Z,8.75
2022-08-31T01:38:26.110Z,8.88
2022-08-31T01:40:56.220Z,9.30
2022-08-31T01:48:26.199Z,9.70
2022-08-31T01:50:52.564Z,8.85
2022-08-31T01:53:19.498Z,9.10
2022-08-31T01:55:46.265Z,9.57
2022-08-31T01:58:13.322Z,9.65
2022-08-31T02:00:40.676Z,8.73
2022-08-31T02:03:07.642Z,9.20
2022-08-31T02:13:19.436Z,9.32
2022-08-31T02:15:45.870Z,8.40
2022-08-31T02:18:12.290Z,8.98
2022-08-31T02:20:38.674Z,8.50
2022-08-31T02:23:04.984Z,9.50
2022-08-31T02:25:31.573Z,9.23
2022-08-31T02:27:58.079Z,8.90
2022-08-31T02:30:25.867Z,8.38
2022-08-31T02:37:54.951Z,9.02
2022-08-31T02:40:21.920Z,9.63
2022-08-31T02:42:53.013Z,8.70
2022-08-31T02:45:22.114Z,10.65
2022-08-31T02:47:49.739Z,8.70
2022-08-31T02:50:17.607Z,9.52
2022-08-31T02:52:46.396Z,9.30
2022-08-31T02:55:15.914Z,9.93
2022-08-31T02:57:43.576Z,8.95
2022-08-31T03:00:12.548Z,8.60
2022-08-31T03:02:41.470Z,9.32
2022-08-31T03:05:10.272Z,9.48
2022-08-31T03:07:39.136Z,9.68
2022-08-31T03:10:09.597Z,8.90
2022-08-31T03:12:39.445Z,9.10
2022-08-31T03:15:09.329Z,9.23
2022-08-31T03:17:37.234Z,10.07
2022-08-31T03:20:06.510Z,10.82
2022-08-31T03:22:34.836Z,10.13
2022-08-31T03:25:05.618Z,10.35
2022-08-31T03:27:34.002Z,10.15
2022-08-31T03:30:03.078Z,8.82
2022-08-31T03:32:31.763Z,9.73
2022-08-31T03:35:01.074Z,9.55
2022-08-31T03:37:28.986Z,9.38
2022-08-31T03:39:56.955Z,9.75
2022-08-31T03:42:25.310Z,8.80
2022-08-31T03:44:55.350Z,8.90
2022-08-31T03:47:24.494Z,9.10
2022-08-31T03:49:56.280Z,8.73
2022-08-31T03:52:23.992Z,9.93
2022-08-31T03:54:51.767Z,10.05
2022-08-31T03:57:19.475Z,9.95
2022-08-31T03:59:47.167Z,9.07
2022-08-31T04:02:14.948Z,9.65
2022-08-31T04:04:44.052Z,8.93
2022-08-31T04:07:11.690Z,9.35
2022-08-31T04:09:39.420Z,9.25
2022-08-31T04:12:07.372Z,9.38
2022-08-31T04:14:35.084Z,9.68
2022-08-31T04:17:02.819Z,8.90
2022-08-31T04:19:31.573Z,10.05
2022-08-31T04:22:00.751Z,9.10
2022-08-31T04:24:29.405Z,9.40
2022-08-31T04:26:57.198Z,9.02
2022-08-31T04:29:24.930Z,9.55
2022-08-31T04:31:52.627Z,7.60
2022-08-31T04:34:20.365Z,9.23
2022-08-31T04:36:48.133Z,9.35
2022-08-31T04:39:19.379Z,9.23
2022-08-31T04:41:47.222Z,11.00
2022-08-31T04:44:19.763Z,9.38
2022-08-31T04:46:47.998Z,10.35
2022-08-31T04:49:15.675Z,10.13
2022-08-31T04:51:45.219Z,10.55
2022-08-31T04:54:15.156Z,9.70
2022-08-31T04:56:46.304Z,10.70
2022-08-31T04:59:17.269Z,10.52
2022-08-31T05:01:46.530Z,9.77
2022-08-31T05:04:16.329Z,8.63
2022-08-31T05:06:46.247Z,9.20
2022-08-31T05:09:17.578Z,10.93
2022-08-31T05:11:47.447Z,9.35
2022-08-31T05:14:15.487Z,9.80
2022-08-31T05:16:44.296Z,10.65
2022-08-31T05:19:12.218Z,9.75
2022-08-31T05:21:42.153Z,9.63
2022-08-31T05:24:13.022Z,10.57
2022-08-31T05:26:44.423Z,10.05
2022-08-31T05:29:15.172Z,11.65
2022-08-31T05:31:47.168Z,10.00
2022-08-31T05:34:17.790Z,9.27
2022-08-31T05:36:47.292Z,9.65
2022-08-31T05:39:14.973Z,10.10
2022-08-31T05:41:44.609Z,9.88
2022-08-31T05:44:15.070Z,10.25
2022-08-31T05:46:43.660Z,10.15
2022-08-31T05:49:12.227Z,10.20
2022-08-31T05:51:40.290Z,10.32
2022-08-31T05:54:10.689Z,9.57
2022-08-31T05:56:41.154Z,9.68
2022-08-31T05:59:11.174Z,10.15
2022-08-31T06:01:42.482Z,10.10
2022-08-31T06:04:10.599Z,10.93
2022-08-31T06:06:38.868Z,11.30
2022-08-31T06:09:07.664Z,11.15
2022-08-31T06:11:37.354Z,9.65
2022-08-31T06:14:05.841Z,10.63
2022-08-31T06:16:34.130Z,10.02
2022-08-31T06:19:04.658Z,9.95
2022-08-31T06:21:34.619Z,9.35
2022-08-31T06:24:04.570Z,11.15
2022-08-31T06:26:34.606Z,9.98
2022-08-31T06:29:06.331Z,10.00
2022-08-31T06:31:37.408Z,9.55
2022-08-31T06:34:08.214Z,9.57
2022-08-31T06:36:36.478Z,9.63
2022-08-31T06:39:04.455Z,9.18
2022-08-31T06:41:36.784Z,11.48
2022-08-31T06:44:07.900Z,9.50
2022-08-31T06:46:36.971Z,9.65
2022-08-31T06:49:08.558Z,9.57
2022-08-31T06:51:38.199Z,9.85
2022-08-31T06:54:27.881Z,8.98
2022-08-31T06:56:57.835Z,9.85
2022-08-31T06:59:28.880Z,11.00
2022-08-31T07:01:57.985Z,9.80
2022-08-31T07:04:28.068Z,10.25
2022-08-31T07:06:55.795Z,10.90
2022-08-31T07:09:23.844Z,9.73
2022-08-31T07:11:53.530Z,9.05
2022-08-31T07:14:22.934Z,8.60
2022-08-31T07:16:53.278Z,9.90
2022-08-31T07:19:21.951Z,11.18
2022-08-31T07:21:53.583Z,9.07
2022-08-31T07:24:24.534Z,9.38
2022-08-31T07:26:54.507Z,9.75
2022-08-31T07:29:24.138Z,9.65
2022-08-31T07:31:53.000Z,10.38
2022-08-31T07:34:25.782Z,9.35
2022-08-31T07:37:14.731Z,8.60
2022-08-31T07:40:06.244Z,12.00
2022-08-31T07:42:37.970Z,10.10
2022-08-31T07:45:12.140Z,10.57
2022-08-31T07:47:45.994Z,8.55
2022-08-31T07:50:15.137Z,9.80
2022-08-31T07:52:47.407Z,11.45
2022-08-31T07:55:17.963Z,11.13
2022-08-31T07:57:46.100Z,11.68
2022-08-31T08:00:15.466Z,8.88
2022-08-31T08:02:46.323Z,10.02
2022-08-31T08:05:24.462Z,8.93
2022-08-31T08:08:00.124Z,8.90
2022-08-31T08:10:29.967Z,9.80
2022-08-31T08:13:05.419Z,8.40
2022-08-31T08:15:36.141Z,8.10
2022-08-31T08:18:04.780Z,8.38
2022-08-31T08:20:34.646Z,8.82
2022-08-31T08:23:13.889Z,10.13
2022-08-31T08:25:56.762Z,9.77
2022-08-31T08:28:43.120Z,9.25
2022-08-31T08:31:14.277Z,9.07
2022-08-31T08:33:42.291Z,9.75
2022-08-31T08:36:10.002Z,9.18
2022-08-31T08:38:43.698Z,9.43
2022-08-31T08:41:13.970Z,10.95
2022-08-31T08:43:50.092Z,10.40
2022-08-31T08:46:34.882Z,9.88
2022-08-31T08:49:14.292Z,10.00
2022-08-31T08:51:42.791Z,10.93
2022-08-31T08:54:15.935Z,9.60
2022-08-31T08:56:48.894Z,10.05
2022-08-31T08:59:19.882Z,9.45
2022-08-31T09:01:51.095Z,12.57
2022-08-31T09:04:35.772Z,9.57
2022-08-31T09:07:21.050Z,9.98
2022-08-31T09:10:02.262Z,9.45
2022-08-31T09:12:44.748Z,10.68
2022-08-31T09:15:37.256Z,9.35
2022-08-31T09:18:19.105Z,10.38
2022-08-31T09:21:02.332Z,10.40
2022-08-31T09:23:31.634Z,12.57
2022-08-31T09:26:06.243Z,9.93
2022-08-31T09:28:38.905Z,12.20
2022-08-31T09:31:06.809Z,11.63
2022-08-31T09:33:47.434Z,9.25
2022-08-31T09:36:16.889Z,10.32
2022-08-31T09:38:46.888Z,10.77
2022-08-31T09:41:33.306Z,10.88
2022-08-31T09:44:22.749Z,10.07
2022-08-31T09:46:54.324Z,10.73
2022-08-31T09:49:26.137Z,10.52
2022-08-31T09:51:54.888Z,10.50
2022-08-31T09:54:47.765Z,9.27
2022-08-31T09:57:18.570Z,10.15
2022-08-31T09:59:49.347Z,9.40
2022-08-31T10:02:31.757Z,9.18
2022-08-31T10:05:04.238Z,7.88
2022-08-31T10:07:44.403Z,9.50
2022-08-31T10:10:18.803Z,9.40
2022-08-31T10:13:04.441Z,8.35
2022-08-31T10:15:39.323Z,9.18
2022-08-31T10:18:14.130Z,8.38
2022-08-31T10:20:48.345Z,7.93
2022-08-31T10:23:20.787Z,8.45
2022-08-31T10:25:54.654Z,9.25
2022-08-31T10:28:32.074Z,8.95
2022-08-31T10:31:04.214Z,8.32
2022-08-31T10:33:50.748Z,8.35
2022-08-31T10:36:18.694Z,9.68
2022-08-31T10:38:49.427Z,8.13
2022-08-31T10:41:22.281Z,7.70
2022-08-31T10:44:01.487Z,7.70
2022-08-31T10:46:34.504Z,8.10
2022-08-31T10:49:04.379Z,9.70
2022-08-31T10:51:41.439Z,11.00
2022-08-31T10:54:28.729Z,8.85
2022-08-31T10:57:07.695Z,8.52
2022-08-31T10:59:45.938Z,8.88
2022-08-31T11:02:39.556Z,8.70
2022-08-31T11:05:22.900Z,9.13
2022-08-31T11:07:58.053Z,8.88
2022-08-31T11:10:39.949Z,13.23
2022-08-31T11:13:15.164Z,9.90
2022-08-31T11:16:00.033Z,10.60
2022-08-31T11:18:58.782Z,12.52
2022-08-31T11:21:45.118Z,9.00
2022-08-31T11:24:45.942Z,10.07
2022-08-31T11:27:23.612Z,9.02
2022-08-31T11:29:58.134Z,9.70
2022-08-31T11:32:34.553Z,9.10
2022-08-31T11:35:10.104Z,9.13
2022-08-31T11:37:55.868Z,9.23
2022-08-31T11:41:12.037Z,9.52
2022-08-31T11:43:51.947Z,10.63
2022-08-31T11:46:57.439Z,9.15
2022-08-31T11:49:48.212Z,9.93
2022-08-31T11:52:34.511Z,10.05
2022-08-31T11:55:08.911Z,9.82
2022-08-31T11:58:11.171Z,10.60
2022-08-31T12:00:51.878Z,9.75
2022-08-31T12:03:44.122Z,8.57
2022-08-31T12:06:52.922Z,9.52
2022-08-31T12:09:38.174Z,9.15
2022-08-31T12:12:19.663Z,9.63
2022-08-31T12:14:56.659Z,8.95
2022-08-31T12:17:31.745Z,7.78
2022-08-31T12:20:09.144Z,7.97
2022-08-31T12:23:30.281Z,6.28
2022-08-31T12:26:09.367Z,7.47
2022-08-31T12:29:04.053Z,6.78
2022-08-31T12:31:35.631Z,6.00
2022-08-31T12:34:06.817Z,7.80
2022-08-31T12:36:36.915Z,6.70
2022-08-31T12:39:10.907Z,8.02
2022-08-31T12:41:41.892Z,7.95
2022-08-31T12:44:14.285Z,6.28
2022-08-31T12:46:57.664Z,5.97
2022-08-31T12:49:42.681Z,8.13
2022-08-31T12:52:24.207Z,6.00
2022-08-31T12:55:15.182Z,5.72
2022-08-31T12:57:58.731Z,5.85
2022-08-31T13:00:28.732Z,6.28
2022-08-31T13:03:00.305Z,6.70
2022-08-31T13:05:30.766Z,6.57
2022-08-31T13:07:59.743Z,6.32
2022-08-31T13:10:33.659Z,7.22
2022-08-31T13:13:04.476Z,6.03
2022-08-31T13:15:39.310Z,6.57
2022-08-31T13:18:11.768Z,7.00
2022-08-31T13:20:43.312Z,6.97
2022-08-31T13:23:14.630Z,6.55
2022-08-31T13:25:49.683Z,7.13
2022-08-31T13:28:26.138Z,6.53
2022-08-31T13:31:03.270Z,8.30
2022-08-31T13:33:33.126Z,6.75
2022-08-31T13:36:07.940Z,6.53
2022-08-31T13:38:43.313Z,7.70
2022-08-31T13:41:23.695Z,7.47
2022-08-31T13:43:59.019Z,6.10
2022-08-31T13:46:42.288Z,7.28
2022-08-31T13:49:35.267Z,6.45
2022-08-31T13:52:04.172Z,7.22
2022-08-31T13:54:34.332Z,6.10
2022-08-31T13:57:25.870Z,7.22
2022-08-31T13:59:53.727Z,9.45
2022-08-31T14:02:36.703Z,8.15
2022-08-31T14:05:10.376Z,7.20
2022-08-31T14:07:57.041Z,6.28
2022-08-31T14:10:27.337Z,7.30
2022-08-31T14:12:59.654Z,6.70
2022-08-31T14:15:38.530Z,7.72
2022-08-31T14:18:24.621Z,6.93
2022-08-31T14:21:22.849Z,6.93
2022-08-31T14:23:53.647Z,7.03
2022-08-31T14:26:26.418Z,7.50
2022-08-31T14:28:57.533Z,6.78
2022-08-31T14:31:28.607Z,7.57
2022-08-31T14:34:22.122Z,6.90
2022-08-31T14:36:53.815Z,7.60
2022-08-31T14:39:24.301Z,6.88
2022-08-31T14:41:52.996Z,7.20
2022-08-31T14:44:25.404Z,7.32
2022-08-31T14:46:53.085Z,6.25
2022-08-31T14:49:21.323Z,6.10
2022-08-31T14:51:48.995Z,6.90
2022-08-31T14:54:17.908Z,7.70
2022-08-31T14:56:50.409Z,6.18
2022-08-31T14:59:21.666Z,7.30
2022-08-31T15:01:51.196Z,7.25
2022-08-31T15:04:21.837Z,6.72
2022-08-31T15:06:54.941Z,8.05
2022-08-31T15:09:22.916Z,7.80
2022-08-31T15:11:51.375Z,7.85
2022-08-31T15:14:19.348Z,7.57
2022-08-31T15:16:50.776Z,6.28
2022-08-31T15:19:20.014Z,6.10
2022-08-31T15:21:52.763Z,8.43
2022-08-31T15:24:31.091Z,6.78
2022-08-31T15:26:59.867Z,7.82
2022-08-31T15:29:30.497Z,8.48
2022-08-31T15:31:59.712Z,14.35
2022-08-31T15:34:31.131Z,7.25
2022-08-31T15:37:02.175Z,7.47
2022-08-31T15:39:32.657Z,7.45
2022-08-31T15:42:02.603Z,8.18
2022-08-31T15:44:30.364Z,7.00
2022-08-31T15:47:15.446Z,7.00
2022-08-31T15:49:44.585Z,8.45
2022-08-31T15:52:13.009Z,7.85
2022-08-31T15:54:42.113Z,7.35
2022-08-31T15:57:11.166Z,6.82
2022-08-31T15:59:39.824Z,6.88
2022-08-31T16:02:08.574Z,7.00
2022-08-31T16:04:38.456Z,7.45
2022-08-31T16:07:09.260Z,7.85
2022-08-31T16:09:37.398Z,7.38
2022-08-31T16:12:05.434Z,7.60
2022-08-31T16:14:33.317Z,6.80
2022-08-31T16:17:01.360Z,7.75
2022-08-31T16:19:35.434Z,7.47
2022-08-31T16:22:05.681Z,8.02
2022-08-31T16:24:37.258Z,7.85
2022-08-31T16:27:06.272Z,7.40
2022-08-31T16:29:34.574Z,7.28
2022-08-31T16:32:02.381Z,8.68
2022-08-31T16:34:31.435Z,7.80
2022-08-31T16:36:59.858Z,8.80
2022-08-31T16:39:28.377Z,8.23
2022-08-31T16:41:57.597Z,7.90
2022-08-31T16:44:30.203Z,7.80
2022-08-31T16:47:06.616Z,6.97
2022-08-31T16:49:33.606Z,7.05
2022-08-31T16:52:03.359Z,6.80
2022-08-31T16:54:31.529Z,7.18
2022-08-31T16:57:00.986Z,5.18
2022-08-31T16:59:30.291Z,5.60
2022-08-31T17:01:58.226Z,5.57
2022-08-31T17:04:51.132Z,5.45
2022-08-31T17:07:16.443Z,6.30
2022-08-31T17:09:45.146Z,5.35
2022-08-31T17:12:17.081Z,5.13
2022-08-31T17:14:48.183Z,5.30
2022-08-31T17:17:18.110Z,5.18
2022-08-31T17:19:47.628Z,5.00
2022-08-31T17:22:24.540Z,5.35
2022-08-31T17:24:57.347Z,5.05
2022-08-31T17:27:27.887Z,5.45
2022-08-31T17:29:56.430Z,5.97
2022-08-31T17:32:27.630Z,5.05
2022-08-31T17:34:55.810Z,5.35
2022-08-31T17:37:26.837Z,5.07
2022-08-31T17:39:55.954Z,5.55
2022-08-31T17:42:27.942Z,6.18
2022-08-31T17:44:56.818Z,6.20
2022-08-31T17:47:25.810Z,5.32
2022-08-31T17:49:54.104Z,6.35
2022-08-31T17:52:23.141Z,6.78
2022-08-31T17:54:51.648Z,6.95
2022-08-31T17:57:22.362Z,5.57
2022-08-31T17:59:51.623Z,5.60
2022-08-31T18:02:23.037Z,5.65
2022-08-31T18:04:52.277Z,7.07
2022-08-31T18:07:19.953Z,5.93
2022-08-31T18:09:47.933Z,5.15
2022-08-31T18:12:16.866Z,5.82
2022-08-31T18:14:45.274Z,5.20
2022-08-31T18:17:17.097Z,5.10
2022-08-31T18:19:45.724Z,6.32
2022-08-31T18:22:14.795Z,6.35
2022-08-31T18:24:43.877Z,6.10
2022-08-31T18:27:15.120Z,5.43
2022-08-31T18:29:44.079Z,5.75
2022-08-31T18:32:11.739Z,5.95
2022-08-31T18:34:44.968Z,5.57
2022-08-31T18:37:13.755Z,5.53
2022-08-31T18:39:59.709Z,6.60
2022-08-31T18:42:46.822Z,5.53
2022-08-31T18:45:19.195Z,5.88
2022-08-31T18:48:13.504Z,6.63
2022-08-31T18:50:40.101Z,5.57
2022-08-31T18:53:10.707Z,6.18
2022-08-31T18:55:40.779Z,6.15
2022-08-31T18:58:08.532Z,6.30
2022-08-31T19:00:36.394Z,6.05
2022-08-31T19:03:04.340Z,6.93
2022-08-31T19:05:32.572Z,6.40
2022-08-31T19:08:01.618Z,6.88
2022-08-31T19:10:29.456Z,7.22
2022-08-31T19:12:57.122Z,6.78
2022-08-31T19:15:35.977Z,7.40
2022-08-31T19:18:05.091Z,8.63
2022-08-31T19:20:35.638Z,8.95
2022-08-31T19:23:05.048Z,8.55
2022-08-31T19:25:32.886Z,7.82
2022-08-31T19:28:01.595Z,7.32
2022-08-31T19:30:30.182Z,7.57
2022-08-31T19:32:58.046Z,9.38
2022-08-31T19:35:27.499Z,8.20
2022-08-31T19:37:56.066Z,7.43
2022-08-31T19:40:42.992Z,7.90
2022-08-31T19:46:09.669Z,9.18
2022-08-31T19:48:45.147Z,9.00
2022-08-31T19:51:14.190Z,9.80
2022-08-31T19:53:44.535Z,9.23
2022-08-31T19:56:17.615Z,10.93
2022-08-31T19:58:46.930Z,8.82
2022-08-31T20:01:15.170Z,9.57
2022-08-31T20:03:42.831Z,10.45
2022-08-31T20:06:13.327Z,9.88
2022-08-31T20:08:42.070Z,10.25
2022-08-31T20:11:10.862Z,11.10
2022-08-31T20:13:41.177Z,10.07
2022-08-31T20:16:10.218Z,9.85
2022-08-31T20:18:38.275Z,10.02
2022-08-31T20:21:14.062Z,10.80
2022-08-31T20:23:41.820Z,10.85
2022-08-31T20:26:10.612Z,10.07
2022-08-31T20:28:40.642Z,10.68
2022-08-31T20:31:10.834Z,12.05
2022-08-31T20:33:39.201Z,10.57
2022-08-31T20:36:18.741Z,11.05
2022-08-31T20:38:47.245Z,10.95
2022-08-31T20:41:15.097Z,11.07
2022-08-31T20:43:44.655Z,11.90
2022-08-31T20:46:34.527Z,10.57
2022-08-31T20:49:19.760Z,11.75
2022-08-31T20:51:47.680Z,11.23
2022-08-31T20:54:15.614Z,10.75
2022-08-31T20:56:43.229Z,10.25
2022-08-31T20:59:12.242Z,10.07
2022-08-31T21:01:41.368Z,11.63
2022-08-31T21:04:09.513Z,11.85
2022-08-31T21:06:37.486Z,10.77
2022-08-31T21:09:06.654Z,11.35
2022-08-31T21:11:36.978Z,12.05
2022-08-31T21:14:04.966Z,10.98
2022-08-31T21:16:35.806Z,11.05
2022-08-31T21:19:04.722Z,10.35
2022-08-31T21:21:32.421Z,10.60
2022-08-31T21:24:00.234Z,11.38
2022-08-31T21:26:29.011Z,11.35
2022-08-31T21:28:58.010Z,11.65
2022-08-31T21:31:28.682Z,11.05
2022-08-31T21:34:01.296Z,11.38
2022-08-31T21:36:32.867Z,10.02
2022-08-31T21:39:01.009Z,11.00
2022-08-31T21:41:29.822Z,9.93
2022-08-31T21:43:58.600Z,10.90
2022-08-31T21:46:28.760Z,9.90
2022-08-31T21:48:59.519Z,10.65
2022-08-31T21:51:29.360Z,10.55
2022-08-31T21:53:59.220Z,9.35
2022-08-31T21:56:28.898Z,11.45
2022-08-31T21:58:58.385Z,10.80
2022-08-31T22:01:29.381Z,11.13
2022-08-31T22:04:00.889Z,9.98
2022-08-31T22:06:30.983Z,10.55
2022-08-31T22:09:03.108Z,10.30
2022-08-31T22:11:36.155Z,10.25
2022-08-31T22:14:06.964Z,8.77
2022-08-31T22:16:35.834Z,9.98
2022-08-31T22:19:07.044Z,10.20
2022-08-31T22:21:37.098Z,10.25
2022-08-31T22:24:07.565Z,11.15
2022-08-31T22:26:37.501Z,10.68
2022-08-31T22:29:06.519Z,11.07
2022-08-31T22:31:37.493Z,10.20
2022-08-31T22:34:07.581Z,9.55
2022-08-31T22:36:36.217Z,9.73
2022-08-31T22:39:07.391Z,10.98
2022-08-31T22:41:37.367Z,10.68
2022-08-31T22:44:06.308Z,10.63
2022-08-31T22:46:34.804Z,9.82
2022-08-31T22:49:03.035Z,10.30
2022-08-31T22:51:32.278Z,9.57
2022-08-31T22:54:00.911Z,9.82
2022-08-31T22:56:32.407Z,9.52
2022-08-31T22:59:02.555Z,10.35
2022-08-31T23:01:33.218Z,10.35
2022-08-31T23:04:06.529Z,11.18
2022-08-31T23:06:37.610Z,11.27
2022-08-31T23:09:07.528Z,10.90
2022-08-31T23:11:36.110Z,10.52
2022-08-31T23:14:07.599Z,9.98
2022-08-31T23:16:37.630Z,9.88
2022-08-31T23:19:12.349Z,10.98
2022-08-31T23:21:45.940Z,11.50
2022-08-31T23:24:16.651Z,12.55
2022-08-31T23:26:45.507Z,12.70
2022-08-31T23:29:14.191Z,12.38
2022-08-31T23:31:41.907Z,12.35
2022-08-31T23:34:12.853Z,13.25
2022-08-31T23:36:43.586Z,13.38
2022-08-31T23:39:11.281Z,13.43
2022-08-31T23:41:39.245Z,13.35
2022-08-31T23:44:09.975Z,13.82
2022-08-31T23:46:40.300Z,13.05
2022-08-31T23:49:11.547Z,14.93
2022-08-31T23:51:39.329Z,14.38
2022-08-31T23:54:13.966Z,14.75
2022-08-31T23:56:46.957Z,13.38
2022-08-31T23:59:19.591Z,14.02
